Dati Storici

Data ora Umidita' aria (%) Temperatura aria (°C) Rad globale (W/m²) Gonioanemometro (°) Tacoanemometro (m/s) Pioggia (mm)
31-10-2012 22:50 94.1 % 9.08 2.816 13.035 5.385 1
31-10-2012 22:40 94 % 9.124 2.718 37.679 6.895 1
31-10-2012 22:30 94.1 % 9.139 2.757 38.989 5.748 0
31-10-2012 22:20 94 % 9.078 2.726 28.226 4.764 1
31-10-2012 22:10 93.9 % 9.103 2.816 50.052 9.27 1
31-10-2012 22:00 93.9 % 9.112 2.867 47.359 11.366 0
31-10-2012 21:50 93.9 % 8.989 2.79 24.379 6.963 1
31-10-2012 21:40 93.9 % 9.009 2.701 51.299 5.686 1
31-10-2012 21:30 93.9 % 9.073 2.752 42.864 6.191 1
31-10-2012 21:20 93.9 % 9.191 2.948 34.206 11.493 1
31-10-2012 21:10 93.5 % 9.118 3.24 8.298 5.272 1
31-10-2012 21:00 93.3 % 9.115 3.024 59.305 4.397 1
31-10-2012 20:50 93.1 % 9.23 3.177 67.695 8.335 1
31-10-2012 20:40 93.2 % 9.26 3.002 11.996 3.188 0
31-10-2012 20:30 93.2 % 9.261 3.245 23.319 4.49 0
31-10-2012 20:20 93.3 % 9.256 3.369 43.079 5.465 0
31-10-2012 20:10 92.9 % 9.229 3.22 0.209 4.062 1
31-10-2012 20:00 92.4 % 9.252 3.189 48.119 7.147 1
31-10-2012 19:50 91.6 % 9.309 3.014 39.724 4.275 1
31-10-2012 19:40 90.9 % 9.432 2.895 50.182 6.563 1

I dati sono presentati in modo automatico a scopo informativo. In seguito a verifica i dati possono subire modifiche o essere invalidati e non riportati negli archivi definitivi.